createdAt,value
2018-12-27T00:00:48.409Z,43.20
2018-12-27T00:10:54.279Z,43.30
2018-12-27T00:21:01.263Z,43.40
2018-12-27T00:31:07.830Z,43.60
2018-12-27T00:41:13.976Z,43.50
2018-12-27T00:51:20.008Z,43.60
2018-12-27T01:01:28.187Z,43.60
2018-12-27T01:11:34.059Z,43.60
2018-12-27T01:21:40.083Z,43.60
2018-12-27T01:31:50.549Z,43.70
2018-12-27T01:41:53.644Z,43.70
2018-12-27T01:51:59.849Z,43.80
2018-12-27T02:02:05.878Z,43.80
2018-12-27T02:12:12.003Z,43.70
2018-12-27T02:22:17.885Z,43.60
2018-12-27T02:32:23.892Z,43.70
2018-12-27T02:42:32.060Z,43.80
2018-12-27T02:52:38.205Z,43.70
2018-12-27T03:02:44.352Z,43.80
2018-12-27T03:12:50.263Z,44.30
2018-12-27T03:22:56.239Z,43.80
2018-12-27T03:33:02.224Z,43.90
2018-12-27T03:43:09.094Z,44.20
2018-12-27T03:53:15.159Z,44.40
2018-12-27T04:03:21.069Z,44.10
2018-12-27T04:13:27.054Z,44.10
2018-12-27T04:23:32.491Z,44.10
2018-12-27T04:33:38.055Z,44.20
2018-12-27T04:43:45.827Z,44.20
2018-12-27T04:53:51.587Z,44.20
2018-12-27T05:03:57.301Z,44.60
2018-12-27T05:14:02.818Z,44.20
2018-12-27T05:24:08.236Z,44.30
2018-12-27T05:34:13.688Z,44.40
2018-12-27T05:44:19.107Z,44.40
2018-12-27T05:54:24.736Z,44.40
2018-12-27T06:04:33.687Z,44.50
2018-12-27T06:14:37.207Z,44.50
2018-12-27T06:24:45.960Z,44.60
2018-12-27T06:34:51.379Z,44.60
2018-12-27T06:44:56.903Z,44.50
2018-12-27T06:55:02.376Z,44.60
2018-12-27T07:05:07.769Z,44.60
2018-12-27T07:15:13.193Z,44.60
2018-12-27T07:25:18.645Z,44.60
2018-12-27T07:35:24.178Z,45.40
2018-12-27T07:45:29.755Z,44.80
2018-12-27T07:55:35.256Z,44.80
2018-12-27T08:05:40.753Z,44.70
2018-12-27T08:15:46.206Z,44.80
2018-12-27T08:25:51.835Z,44.80
2018-12-27T08:35:57.298Z,44.80
2018-12-27T08:46:02.633Z,44.80
2018-12-27T08:56:08.246Z,44.70
2018-12-27T09:06:15.706Z,44.80
2018-12-27T09:16:21.195Z,44.80
2018-12-27T09:26:26.754Z,45.20
2018-12-27T09:36:32.474Z,45.50
2018-12-27T09:46:37.985Z,45.80
2018-12-27T09:56:43.753Z,45.90
2018-12-27T10:06:49.486Z,45.30
2018-12-27T10:16:54.883Z,44.80
2018-12-27T10:27:01.445Z,44.30
2018-12-27T10:37:07.181Z,44.20
2018-12-27T10:47:12.822Z,44.60
2018-12-27T10:57:18.958Z,45.10
2018-12-27T11:07:27.137Z,44.70
2018-12-27T11:17:32.669Z,46.00
2018-12-27T11:27:38.300Z,45.60
2018-12-27T11:37:43.917Z,45.30
2018-12-27T11:47:50.004Z,45.60
2018-12-27T11:57:55.560Z,45.70
2018-12-27T12:08:01.248Z,46.20
2018-12-27T12:18:07.534Z,45.50
2018-12-27T12:28:13.664Z,45.20
2018-12-27T12:38:19.205Z,45.30
2018-12-27T12:48:27.151Z,44.60
2018-12-27T12:58:34.231Z,45.00
2018-12-27T13:08:39.754Z,44.90
2018-12-27T13:18:47.494Z,45.60
2018-12-27T13:28:53.263Z,43.30
2018-12-27T13:38:58.722Z,41.20
2018-12-27T13:49:05.446Z,41.20
2018-12-27T13:59:11.952Z,38.90
2018-12-27T14:09:19.744Z,36.60
2018-12-27T14:19:25.762Z,37.40
2018-12-27T14:29:31.707Z,38.90
2018-12-27T14:39:37.891Z,39.30
2018-12-27T14:49:44.053Z,38.60
2018-12-27T14:59:49.589Z,40.70
2018-12-27T15:09:55.367Z,39.10
2018-12-27T15:20:01.027Z,37.20
2018-12-27T15:30:07.439Z,39.40
2018-12-27T15:40:13.242Z,41.20
2018-12-27T15:50:18.697Z,43.10
2018-12-27T16:00:24.543Z,43.60
2018-12-27T16:10:30.449Z,44.40
2018-12-27T16:20:36.192Z,44.10
2018-12-27T16:30:41.939Z,43.90
2018-12-27T16:40:51.542Z,44.90
2018-12-27T16:50:57.396Z,44.40
2018-12-27T17:01:04.914Z,44.60
2018-12-27T17:11:11.326Z,45.60
2018-12-27T17:21:19.317Z,46.10
2018-12-27T17:31:25.181Z,46.10
2018-12-27T17:41:30.706Z,46.20
2018-12-27T17:51:36.742Z,46.60
2018-12-27T18:01:43.085Z,46.40
2018-12-27T18:11:48.898Z,46.40
2018-12-27T18:21:54.316Z,46.30
2018-12-27T18:31:59.883Z,46.30
2018-12-27T18:42:08.152Z,46.50
2018-12-27T18:52:13.972Z,46.60
2018-12-27T19:02:19.932Z,46.70
2018-12-27T19:13:17.884Z,46.90
2018-12-27T19:23:24.803Z,47.10
2018-12-27T19:33:30.889Z,47.40
2018-12-27T19:43:37.226Z,47.30
2018-12-27T19:53:42.689Z,47.60
2018-12-27T20:03:48.145Z,47.60
2018-12-27T20:13:54.118Z,47.30
2018-12-27T20:24:00.106Z,47.40
2018-12-27T20:34:08.695Z,47.50
2018-12-27T20:44:14.520Z,47.80
2018-12-27T20:54:20.442Z,47.90
2018-12-27T21:04:26.238Z,48.10
2018-12-27T21:14:32.210Z,48.20
2018-12-27T21:24:37.736Z,48.20
2018-12-27T21:34:43.135Z,47.20
2018-12-27T21:44:48.903Z,43.60
2018-12-27T21:54:56.890Z,44.00
2018-12-27T22:05:03.504Z,45.00
2018-12-27T22:15:11.306Z,45.70
2018-12-27T22:25:18.530Z,46.20
2018-12-27T22:35:24.259Z,46.60
2018-12-27T22:45:29.905Z,47.20
2018-12-27T22:55:35.731Z,47.30
2018-12-27T23:05:42.176Z,47.00
2018-12-27T23:15:48.199Z,43.40
2018-12-27T23:25:53.629Z,44.70
2018-12-27T23:35:58.994Z,42.10
2018-12-27T23:46:04.617Z,42.50
2018-12-27T23:56:10.194Z,43.10
